createdAt,value
2023-05-25T00:01:02.540Z,3.63
2023-05-25T00:03:31.841Z,3.53
2023-05-25T00:06:01.829Z,3.20
2023-05-25T00:08:29.071Z,3.78
2023-05-25T00:10:55.764Z,3.10
2023-05-25T00:13:22.649Z,3.50
2023-05-25T00:15:49.157Z,3.65
2023-05-25T00:18:15.877Z,3.65
2023-05-25T00:20:44.707Z,3.50
2023-05-25T00:23:11.521Z,4.50
2023-05-25T00:25:38.244Z,3.40
2023-05-25T00:28:05.019Z,3.85
2023-05-25T00:30:31.720Z,3.85
2023-05-25T00:33:01.298Z,4.30
2023-05-25T00:35:28.353Z,3.65
2023-05-25T00:37:55.033Z,3.60
2023-05-25T00:40:21.684Z,3.65
2023-05-25T00:42:48.429Z,4.10
2023-05-25T00:45:15.225Z,4.50
2023-05-25T00:47:43.355Z,3.97
2023-05-25T00:50:10.719Z,4.15
2023-05-25T00:52:37.341Z,4.28
2023-05-25T00:55:07.917Z,4.10
2023-05-25T00:57:38.045Z,3.95
2023-05-25T01:00:10.811Z,4.07
2023-05-25T01:02:40.628Z,3.47
2023-05-25T01:05:08.963Z,3.38
2023-05-25T01:07:37.011Z,3.83
2023-05-25T01:10:05.883Z,3.90
2023-05-25T01:12:40.469Z,3.50
2023-05-25T01:15:07.538Z,3.53
2023-05-25T01:17:38.003Z,3.45
2023-05-25T01:20:11.265Z,4.20
2023-05-25T01:22:49.834Z,3.40
2023-05-25T01:25:23.117Z,3.17
2023-05-25T01:27:54.338Z,3.60
2023-05-25T01:30:22.861Z,3.60
2023-05-25T01:32:50.518Z,3.75
2023-05-25T01:35:19.848Z,3.40
2023-05-25T01:37:47.264Z,3.45
2023-05-25T01:40:14.558Z,3.90
2023-05-25T01:42:41.403Z,3.33
2023-05-25T01:45:08.941Z,3.72
2023-05-25T01:47:44.143Z,3.35
2023-05-25T01:50:10.737Z,4.38
2023-05-25T01:52:41.721Z,3.38
2023-05-25T01:55:12.012Z,3.72
2023-05-25T01:57:41.530Z,4.22
2023-05-25T02:00:09.577Z,3.88
2023-05-25T02:02:43.401Z,4.60
2023-05-25T02:05:11.234Z,4.22
2023-05-25T02:07:38.231Z,3.92
2023-05-25T02:10:05.196Z,4.22
2023-05-25T02:12:31.901Z,4.15
2023-05-25T02:14:58.704Z,4.43
2023-05-25T02:17:28.223Z,5.38
2023-05-25T02:19:55.053Z,3.95
2023-05-25T02:22:21.931Z,5.07
2023-05-25T02:24:48.716Z,4.85
2023-05-25T02:27:15.400Z,4.32
2023-05-25T02:29:42.193Z,3.95
2023-05-25T02:32:08.875Z,4.40
2023-05-25T02:34:35.661Z,4.60
2023-05-25T02:37:02.462Z,4.38
2023-05-25T02:39:29.214Z,4.45
2023-05-25T02:41:58.075Z,4.07
2023-05-25T02:44:26.292Z,4.85
2023-05-25T02:46:53.333Z,4.60
2023-05-25T02:49:20.048Z,4.47
2023-05-25T02:51:48.293Z,4.07
2023-05-25T02:54:14.905Z,4.43
2023-05-25T02:56:42.516Z,4.30
2023-05-25T02:59:09.468Z,4.47
2023-05-25T03:01:36.242Z,4.20
2023-05-25T03:04:02.930Z,4.13
2023-05-25T03:06:36.584Z,4.38
2023-05-25T03:09:10.696Z,4.72
2023-05-25T03:11:38.916Z,4.90
2023-05-25T03:14:05.461Z,4.10
2023-05-25T03:16:36.642Z,3.85
2023-05-25T03:19:05.532Z,4.07
2023-05-25T03:21:34.836Z,4.57
2023-05-25T03:24:01.455Z,4.40
2023-05-25T03:26:28.982Z,4.07
2023-05-25T03:28:55.585Z,4.43
2023-05-25T03:31:22.961Z,4.45
2023-05-25T03:33:49.547Z,5.30
2023-05-25T03:36:17.572Z,5.10
2023-05-25T03:38:45.101Z,5.72
2023-05-25T03:41:11.666Z,4.85
2023-05-25T03:43:38.583Z,4.72
2023-05-25T03:46:06.913Z,5.53
2023-05-25T03:48:33.535Z,6.10
2023-05-25T03:51:00.160Z,5.07
2023-05-25T03:53:27.438Z,5.47
2023-05-25T03:55:54.236Z,5.68
2023-05-25T03:58:21.072Z,5.53
2023-05-25T04:00:50.705Z,5.10
2023-05-25T04:03:17.725Z,5.68
2023-05-25T04:05:47.310Z,5.78
2023-05-25T04:08:14.562Z,6.35
2023-05-25T04:10:41.106Z,5.78
2023-05-25T04:13:07.700Z,6.25
2023-05-25T04:15:34.724Z,6.30
2023-05-25T04:18:06.752Z,6.22
2023-05-25T04:20:33.630Z,6.25
2023-05-25T04:23:00.706Z,6.00
2023-05-25T04:25:29.392Z,7.15
2023-05-25T04:27:57.044Z,6.72
2023-05-25T04:30:41.675Z,7.55
2023-05-25T04:33:20.286Z,7.10
2023-05-25T04:36:00.755Z,7.78
2023-05-25T04:38:28.243Z,7.43
2023-05-25T04:40:54.881Z,7.43
2023-05-25T04:43:22.294Z,8.07
2023-05-25T04:45:51.402Z,7.22
2023-05-25T04:48:18.404Z,7.82
2023-05-25T04:50:45.204Z,7.32
2023-05-25T04:53:11.756Z,7.53
2023-05-25T04:55:38.600Z,7.57
2023-05-25T04:58:05.785Z,7.22
2023-05-25T05:00:34.413Z,7.78
2023-05-25T05:03:02.319Z,8.00
2023-05-25T05:05:29.008Z,7.10
2023-05-25T05:07:59.755Z,7.88
2023-05-25T05:10:26.750Z,7.00
2023-05-25T05:12:56.966Z,8.18
2023-05-25T05:15:23.708Z,7.68
2023-05-25T05:17:50.707Z,7.20
2023-05-25T05:20:17.584Z,7.65
2023-05-25T05:22:46.055Z,7.13
2023-05-25T05:25:12.638Z,7.18
2023-05-25T05:27:39.244Z,7.30
2023-05-25T05:30:13.367Z,7.63
2023-05-25T05:32:40.074Z,7.65
2023-05-25T05:35:08.469Z,7.53
2023-05-25T05:37:42.007Z,6.72
2023-05-25T05:40:09.430Z,7.38
2023-05-25T05:42:36.687Z,7.07
2023-05-25T05:45:03.512Z,6.13
2023-05-25T05:47:30.179Z,5.78
2023-05-25T05:49:56.862Z,6.68
2023-05-25T05:52:23.550Z,6.47
2023-05-25T05:54:50.286Z,5.95
2023-05-25T05:57:16.811Z,5.50
2023-05-25T05:59:43.525Z,5.57
2023-05-25T06:02:10.236Z,5.22
2023-05-25T06:04:38.334Z,4.82
2023-05-25T06:07:05.178Z,4.55
2023-05-25T06:09:31.874Z,4.35
2023-05-25T06:11:59.968Z,4.75
2023-05-25T06:14:28.599Z,4.40
2023-05-25T06:16:57.696Z,5.18
2023-05-25T06:19:24.870Z,5.07
2023-05-25T06:21:51.523Z,4.90
2023-05-25T06:24:20.994Z,4.45
2023-05-25T06:26:47.483Z,5.20
2023-05-25T06:29:16.866Z,4.50
2023-05-25T06:31:44.038Z,3.90
2023-05-25T06:34:10.945Z,4.63
2023-05-25T06:36:38.060Z,4.40
2023-05-25T06:39:05.650Z,3.88
2023-05-25T06:41:32.327Z,3.70
2023-05-25T06:43:58.982Z,3.58
2023-05-25T06:46:31.897Z,3.10
2023-05-25T06:48:59.955Z,2.92
2023-05-25T06:51:27.625Z,3.03
2023-05-25T06:53:57.291Z,3.40
2023-05-25T06:56:24.073Z,3.40
2023-05-25T06:58:51.067Z,2.65
2023-05-25T07:01:17.803Z,2.78
2023-05-25T07:03:44.413Z,2.72
2023-05-25T07:06:12.225Z,3.10
2023-05-25T07:08:38.984Z,2.72
2023-05-25T07:11:05.601Z,2.83
2023-05-25T07:13:32.354Z,2.80
2023-05-25T07:15:59.024Z,2.30
2023-05-25T07:18:26.465Z,2.28
2023-05-25T07:20:53.587Z,2.25
2023-05-25T07:23:20.273Z,2.10
2023-05-25T07:25:47.007Z,2.53
2023-05-25T07:28:13.794Z,2.67
2023-05-25T07:30:40.924Z,2.33
2023-05-25T07:33:07.603Z,2.38
2023-05-25T07:35:35.514Z,2.75
2023-05-25T07:38:04.446Z,2.53
2023-05-25T07:40:31.231Z,2.50
2023-05-25T07:42:57.904Z,2.17
2023-05-25T07:45:24.570Z,2.03
2023-05-25T07:47:51.273Z,2.40
2023-05-25T07:50:17.982Z,2.08
2023-05-25T07:52:44.842Z,2.30
2023-05-25T07:55:11.438Z,2.30
2023-05-25T07:57:38.195Z,1.95
2023-05-25T08:00:09.160Z,1.95
2023-05-25T08:02:42.027Z,1.80
2023-05-25T08:05:09.253Z,1.98
2023-05-25T08:07:36.035Z,1.77
2023-05-25T08:10:03.375Z,2.38
2023-05-25T08:12:46.985Z,1.73
2023-05-25T08:15:16.763Z,1.95
2023-05-25T08:17:43.511Z,2.33
2023-05-25T08:20:10.744Z,2.20
2023-05-25T08:22:37.682Z,1.95
2023-05-25T08:25:05.194Z,3.13
2023-05-25T08:27:34.395Z,2.00
2023-05-25T08:30:02.415Z,2.30
2023-05-25T08:32:28.984Z,2.03
2023-05-25T08:34:55.776Z,2.05
2023-05-25T08:37:23.665Z,2.30
2023-05-25T08:39:50.519Z,2.00
2023-05-25T08:42:17.059Z,2.10
2023-05-25T08:44:43.719Z,2.00
2023-05-25T08:47:12.006Z,2.00
2023-05-25T08:49:39.356Z,2.45
2023-05-25T08:52:06.846Z,2.35
2023-05-25T08:54:37.262Z,2.60
2023-05-25T08:57:20.427Z,2.33
2023-05-25T08:59:50.465Z,2.58
2023-05-25T09:02:36.261Z,2.55
2023-05-25T09:05:02.984Z,2.42
2023-05-25T09:07:31.413Z,2.60
2023-05-25T09:09:58.852Z,2.40
2023-05-25T09:12:25.496Z,2.72
2023-05-25T09:14:53.586Z,2.95
2023-05-25T09:17:21.293Z,3.47
2023-05-25T09:19:49.807Z,3.10
2023-05-25T09:22:17.076Z,3.05
2023-05-25T09:24:44.710Z,3.05
2023-05-25T09:27:12.282Z,3.55
2023-05-25T09:29:38.818Z,3.55
2023-05-25T09:32:06.822Z,3.80
2023-05-25T09:34:36.732Z,3.35
2023-05-25T09:37:04.122Z,3.50
2023-05-25T09:39:31.045Z,3.38
2023-05-25T09:42:15.526Z,4.22
2023-05-25T09:44:43.277Z,3.20
2023-05-25T09:47:09.996Z,3.38
2023-05-25T09:49:36.935Z,3.47
2023-05-25T09:52:03.633Z,3.20
2023-05-25T09:54:30.401Z,3.28
2023-05-25T09:56:56.981Z,3.58
2023-05-25T09:59:23.678Z,3.65
2023-05-25T10:01:53.804Z,3.95
2023-05-25T10:04:21.056Z,3.83
2023-05-25T10:06:49.898Z,3.85
2023-05-25T10:09:18.305Z,3.80
2023-05-25T10:11:45.073Z,3.08
2023-05-25T10:14:14.271Z,3.50
2023-05-25T10:16:41.515Z,3.42
2023-05-25T10:19:15.040Z,3.20
2023-05-25T10:21:42.252Z,3.92
2023-05-25T10:24:29.020Z,3.45
2023-05-25T10:26:56.864Z,3.17
2023-05-25T10:29:27.050Z,2.80
2023-05-25T10:31:54.188Z,3.10
2023-05-25T10:34:22.173Z,3.60
2023-05-25T10:36:49.117Z,2.95
2023-05-25T10:39:15.911Z,3.60
2023-05-25T10:41:43.754Z,3.42
2023-05-25T10:44:10.502Z,3.33
2023-05-25T10:46:37.379Z,3.55
2023-05-25T10:49:06.325Z,3.40
2023-05-25T10:51:39.271Z,3.67
2023-05-25T10:54:06.170Z,3.80
2023-05-25T10:56:32.755Z,3.40
2023-05-25T10:58:59.460Z,4.03
2023-05-25T11:01:26.256Z,3.72
2023-05-25T11:03:53.008Z,4.18
2023-05-25T11:06:21.667Z,4.43
2023-05-25T11:08:55.029Z,4.32
2023-05-25T11:11:22.512Z,5.03
2023-05-25T11:13:49.708Z,4.90
2023-05-25T11:16:19.172Z,5.22
2023-05-25T11:18:56.400Z,5.40
2023-05-25T11:21:32.309Z,4.85
2023-05-25T11:24:03.396Z,5.35
2023-05-25T11:26:31.262Z,5.07
2023-05-25T11:29:01.992Z,5.82
2023-05-25T11:31:36.392Z,5.57
2023-05-25T11:34:05.782Z,4.75
2023-05-25T11:36:34.124Z,5.38
2023-05-25T11:39:06.807Z,5.22
2023-05-25T11:41:38.655Z,4.88
2023-05-25T11:44:08.478Z,4.82
2023-05-25T11:46:35.283Z,5.30
2023-05-25T11:49:01.835Z,5.10
2023-05-25T11:51:29.588Z,5.30
2023-05-25T11:53:56.829Z,5.32
2023-05-25T11:56:34.358Z,5.03
2023-05-25T11:59:02.541Z,4.85
2023-05-25T12:01:32.041Z,4.57
2023-05-25T12:03:58.979Z,5.05
2023-05-25T12:06:29.726Z,4.60
2023-05-25T12:08:57.040Z,4.18
2023-05-25T12:11:34.132Z,4.60
2023-05-25T12:14:01.498Z,4.15
2023-05-25T12:16:28.840Z,4.35
2023-05-25T12:18:55.715Z,4.65
2023-05-25T12:21:22.550Z,4.72
2023-05-25T12:23:49.806Z,4.97
2023-05-25T12:26:17.557Z,4.82
2023-05-25T12:28:59.900Z,4.65
2023-05-25T12:31:27.513Z,4.57
2023-05-25T12:34:12.987Z,5.35
2023-05-25T12:36:45.728Z,4.88
2023-05-25T12:39:14.449Z,4.65
2023-05-25T12:41:54.332Z,4.72
2023-05-25T12:44:23.950Z,4.57
2023-05-25T12:46:51.026Z,4.35
2023-05-25T12:49:25.296Z,4.35
2023-05-25T12:51:51.988Z,4.70
2023-05-25T12:54:33.672Z,4.20
2023-05-25T12:57:02.316Z,4.30
2023-05-25T12:59:29.247Z,4.18
2023-05-25T13:01:56.442Z,4.82
2023-05-25T13:04:23.321Z,4.47
2023-05-25T13:06:50.076Z,4.18
2023-05-25T13:09:27.796Z,4.28
2023-05-25T13:11:55.774Z,4.47
2023-05-25T13:14:26.042Z,4.65
2023-05-25T13:16:53.507Z,4.72
2023-05-25T13:19:21.074Z,4.82
2023-05-25T13:21:49.380Z,4.90
2023-05-25T13:24:16.706Z,4.43
2023-05-25T13:26:46.462Z,5.00
2023-05-25T13:29:14.077Z,4.15
2023-05-25T13:31:41.148Z,4.32
2023-05-25T13:34:07.830Z,4.28
2023-05-25T13:36:34.899Z,5.05
2023-05-25T13:39:02.133Z,5.00
2023-05-25T13:41:28.803Z,4.85
2023-05-25T13:43:55.565Z,4.38
2023-05-25T13:46:33.966Z,5.60
2023-05-25T13:49:02.255Z,4.47
2023-05-25T13:51:28.730Z,4.47
2023-05-25T13:53:55.421Z,4.45
2023-05-25T13:56:22.558Z,4.15
2023-05-25T13:58:49.281Z,4.63
2023-05-25T14:01:16.004Z,4.85
2023-05-25T14:03:42.991Z,4.13
2023-05-25T14:06:09.635Z,5.25
2023-05-25T14:08:36.210Z,4.13
2023-05-25T14:11:03.261Z,4.70
2023-05-25T14:13:30.055Z,4.47
2023-05-25T14:15:57.161Z,4.25
2023-05-25T14:18:23.958Z,4.25
2023-05-25T14:20:50.595Z,3.97
2023-05-25T14:23:19.244Z,3.83
2023-05-25T14:25:46.698Z,3.88
2023-05-25T14:28:13.621Z,4.45
2023-05-25T14:30:40.172Z,3.80
2023-05-25T14:33:07.158Z,3.70
2023-05-25T14:35:33.785Z,3.88
2023-05-25T14:38:00.438Z,4.03
2023-05-25T14:40:27.126Z,3.55
2023-05-25T14:42:55.591Z,4.15
2023-05-25T14:45:22.447Z,4.10
2023-05-25T14:47:50.666Z,3.70
2023-05-25T14:50:20.347Z,3.58
2023-05-25T14:52:46.968Z,4.47
2023-05-25T14:55:13.682Z,3.97
2023-05-25T14:57:40.464Z,3.88
2023-05-25T15:00:07.538Z,4.38
2023-05-25T15:02:34.415Z,4.15
2023-05-25T15:05:01.062Z,4.28
2023-05-25T15:07:27.569Z,4.15
2023-05-25T15:09:54.455Z,4.00
2023-05-25T15:12:20.959Z,3.75
2023-05-25T15:14:47.506Z,4.43
2023-05-25T15:17:14.172Z,4.60
2023-05-25T15:19:40.904Z,4.00
2023-05-25T15:22:07.447Z,4.03
2023-05-25T15:24:34.391Z,3.75
2023-05-25T15:27:01.651Z,4.10
2023-05-25T15:29:28.282Z,3.50
2023-05-25T15:31:55.021Z,3.03
2023-05-25T15:34:21.673Z,4.07
2023-05-25T15:36:48.261Z,3.22
2023-05-25T15:39:15.706Z,3.17
2023-05-25T15:41:43.085Z,3.90
2023-05-25T15:44:12.671Z,3.20
2023-05-25T15:46:42.437Z,3.70
2023-05-25T15:49:11.627Z,4.15
2023-05-25T15:51:44.916Z,3.50
2023-05-25T15:54:14.390Z,3.38
2023-05-25T15:56:41.511Z,4.18
2023-05-25T15:59:08.083Z,3.88
2023-05-25T16:01:36.674Z,3.65
2023-05-25T16:04:03.960Z,3.78
2023-05-25T16:06:30.987Z,3.83
2023-05-25T16:08:59.924Z,3.70
2023-05-25T16:11:28.062Z,3.40
2023-05-25T16:13:55.077Z,3.20
2023-05-25T16:16:21.685Z,3.88
2023-05-25T16:18:48.358Z,3.67
2023-05-25T16:21:15.193Z,3.63
2023-05-25T16:23:41.835Z,3.80
2023-05-25T16:26:10.160Z,4.07
2023-05-25T16:28:37.165Z,4.15
2023-05-25T16:31:05.135Z,4.28
2023-05-25T16:33:32.173Z,4.10
2023-05-25T16:35:58.865Z,3.33
2023-05-25T16:38:25.677Z,3.75
2023-05-25T16:40:52.171Z,3.42
2023-05-25T16:43:19.153Z,3.70
2023-05-25T16:45:45.936Z,4.20
2023-05-25T16:48:12.770Z,5.40
2023-05-25T16:50:39.316Z,4.25
2023-05-25T16:53:06.333Z,4.03
2023-05-25T16:55:33.647Z,4.18
2023-05-25T16:58:00.307Z,4.40
2023-05-25T17:00:27.228Z,4.25
2023-05-25T17:02:53.868Z,4.05
2023-05-25T17:05:20.612Z,4.40
2023-05-25T17:07:47.262Z,4.72
2023-05-25T17:10:13.781Z,4.05
2023-05-25T17:12:40.516Z,3.90
2023-05-25T17:15:07.414Z,3.55
2023-05-25T17:17:34.138Z,3.10
2023-05-25T17:20:01.036Z,3.20
2023-05-25T17:22:27.803Z,3.25
2023-05-25T17:24:54.425Z,3.67
2023-05-25T17:27:21.620Z,3.55
2023-05-25T17:29:48.235Z,3.90
2023-05-25T17:32:14.985Z,4.07
2023-05-25T17:34:41.566Z,3.75
2023-05-25T17:37:08.195Z,4.10
2023-05-25T17:39:34.736Z,3.63
2023-05-25T17:42:07.615Z,4.43
2023-05-25T17:44:34.335Z,4.63
2023-05-25T17:47:01.227Z,4.63
2023-05-25T17:49:27.864Z,4.88
2023-05-25T17:51:54.499Z,4.03
2023-05-25T17:54:25.559Z,4.07
2023-05-25T17:56:52.611Z,4.90
2023-05-25T17:59:19.249Z,4.97
2023-05-25T18:01:46.014Z,4.68
2023-05-25T18:04:12.689Z,4.03
2023-05-25T18:06:39.344Z,4.80
2023-05-25T18:09:05.848Z,4.70
2023-05-25T18:11:36.625Z,4.45
2023-05-25T18:14:05.180Z,5.15
2023-05-25T18:16:31.944Z,4.93
2023-05-25T18:18:58.618Z,4.47
2023-05-25T18:21:25.464Z,5.25
2023-05-25T18:23:52.016Z,5.30
2023-05-25T18:26:18.619Z,5.20
2023-05-25T18:28:45.328Z,5.28
2023-05-25T18:31:11.852Z,4.93
2023-05-25T18:33:40.858Z,4.18
2023-05-25T18:36:07.549Z,5.05
2023-05-25T18:38:34.347Z,5.55
2023-05-25T18:41:01.176Z,5.40
2023-05-25T18:43:27.821Z,5.32
2023-05-25T18:45:54.441Z,5.28
2023-05-25T18:48:23.287Z,5.10
2023-05-25T18:50:50.173Z,5.18
2023-05-25T18:53:16.789Z,5.05
2023-05-25T18:55:43.673Z,4.68
2023-05-25T18:58:10.558Z,5.05
2023-05-25T19:00:37.112Z,5.57
2023-05-25T19:03:04.228Z,4.82
2023-05-25T19:05:30.966Z,5.63
2023-05-25T19:07:59.558Z,5.15
2023-05-25T19:10:26.700Z,4.97
2023-05-25T19:12:53.267Z,5.32
2023-05-25T19:15:19.960Z,4.88
2023-05-25T19:17:49.713Z,4.93
2023-05-25T19:20:16.531Z,5.20
2023-05-25T19:22:43.442Z,5.47
2023-05-25T19:25:09.964Z,6.43
2023-05-25T19:27:36.749Z,6.40
2023-05-25T19:30:04.011Z,5.75
2023-05-25T19:32:30.746Z,5.72
2023-05-25T19:34:57.317Z,4.88
2023-05-25T19:37:25.886Z,6.15
2023-05-25T19:39:52.443Z,6.30
2023-05-25T19:42:20.644Z,5.95
2023-05-25T19:44:47.171Z,6.57
2023-05-25T19:47:13.823Z,6.47
2023-05-25T19:49:40.482Z,6.00
2023-05-25T19:52:07.502Z,5.13
2023-05-25T19:54:34.098Z,6.00
2023-05-25T19:57:00.960Z,6.03
2023-05-25T19:59:30.087Z,6.43
2023-05-25T20:01:56.971Z,5.38
2023-05-25T20:04:23.845Z,5.55
2023-05-25T20:06:50.850Z,5.90
2023-05-25T20:09:17.809Z,5.65
2023-05-25T20:11:44.473Z,6.97
2023-05-25T20:14:11.107Z,5.80
2023-05-25T20:16:37.842Z,6.20
2023-05-25T20:19:07.460Z,5.18
2023-05-25T20:21:34.604Z,5.30
2023-05-25T20:24:01.303Z,5.20
2023-05-25T20:26:27.970Z,6.28
2023-05-25T20:28:54.534Z,6.15
2023-05-25T20:31:21.198Z,6.35
2023-05-25T20:33:47.862Z,6.00
2023-05-25T20:36:15.750Z,5.38
2023-05-25T20:38:44.373Z,5.10
2023-05-25T20:41:11.258Z,5.20
2023-05-25T20:43:37.786Z,5.47
2023-05-25T20:46:04.478Z,5.07
2023-05-25T20:48:30.963Z,5.03
2023-05-25T20:50:57.485Z,5.35
2023-05-25T20:53:24.117Z,5.53
2023-05-25T20:55:50.785Z,6.22
2023-05-25T20:58:17.259Z,5.03
2023-05-25T21:00:44.293Z,5.63
2023-05-25T21:03:10.927Z,4.82
2023-05-25T21:05:38.185Z,5.90
2023-05-25T21:08:04.931Z,6.25
2023-05-25T21:10:31.680Z,5.85
2023-05-25T21:12:58.146Z,6.00
2023-05-25T21:15:26.053Z,5.13
2023-05-25T21:17:52.610Z,5.07
2023-05-25T21:20:19.343Z,6.10
2023-05-25T21:22:46.114Z,5.32
2023-05-25T21:25:12.812Z,5.45
2023-05-25T21:27:39.380Z,5.63
2023-05-25T21:30:06.419Z,5.80
2023-05-25T21:32:33.012Z,5.10
2023-05-25T21:34:59.611Z,4.93
2023-05-25T21:37:26.139Z,5.35
2023-05-25T21:39:52.880Z,5.28
2023-05-25T21:42:19.406Z,5.88
2023-05-25T21:44:45.997Z,6.25
2023-05-25T21:47:12.667Z,6.20
2023-05-25T21:49:39.345Z,6.20
2023-05-25T21:52:18.206Z,5.95
2023-05-25T21:54:44.732Z,5.35
2023-05-25T21:57:11.295Z,5.20
2023-05-25T21:59:37.900Z,5.40
2023-05-25T22:02:04.658Z,5.65
2023-05-25T22:04:31.387Z,5.97
2023-05-25T22:06:58.479Z,5.68
2023-05-25T22:09:25.108Z,5.22
2023-05-25T22:11:51.565Z,5.53
2023-05-25T22:14:18.232Z,5.57
2023-05-25T22:16:44.907Z,5.35
2023-05-25T22:19:11.508Z,5.78
2023-05-25T22:21:38.093Z,5.53
2023-05-25T22:24:04.731Z,5.85
2023-05-25T22:26:31.335Z,5.28
2023-05-25T22:28:58.206Z,5.55
2023-05-25T22:31:26.422Z,5.75
2023-05-25T22:33:53.133Z,5.43
2023-05-25T22:36:19.866Z,5.43
2023-05-25T22:38:46.672Z,5.97
2023-05-25T22:41:13.294Z,4.97
2023-05-25T22:43:39.800Z,5.85
2023-05-25T22:46:06.348Z,5.53
2023-05-25T22:48:32.944Z,5.97
2023-05-25T22:50:59.499Z,5.50
2023-05-25T22:53:26.222Z,4.65
2023-05-25T22:55:52.768Z,5.30
2023-05-25T22:58:19.516Z,4.95
2023-05-25T23:00:46.044Z,4.88
2023-05-25T23:03:12.687Z,5.15
2023-05-25T23:05:39.602Z,4.75
2023-05-25T23:08:06.297Z,4.70
2023-05-25T23:10:32.760Z,5.10
2023-05-25T23:12:59.384Z,4.43
2023-05-25T23:15:25.860Z,5.45
2023-05-25T23:17:52.506Z,5.47
2023-05-25T23:20:19.206Z,5.07
2023-05-25T23:22:45.986Z,4.95
2023-05-25T23:25:12.505Z,5.93
2023-05-25T23:27:39.268Z,5.30
2023-05-25T23:30:07.034Z,5.57
2023-05-25T23:32:34.344Z,5.55
2023-05-25T23:35:01.480Z,5.65
2023-05-25T23:37:28.554Z,4.97
2023-05-25T23:39:55.112Z,5.47
2023-05-25T23:42:21.828Z,4.80
2023-05-25T23:44:48.448Z,5.13
2023-05-25T23:47:15.012Z,5.53
2023-05-25T23:49:41.878Z,5.70
2023-05-25T23:52:08.854Z,5.32
2023-05-25T23:54:35.509Z,5.38
2023-05-25T23:57:02.170Z,5.60
2023-05-25T23:59:28.682Z,5.82
